sensor_id;sensor_type;location;lat;lon;timestamp;P1;durP1;ratioP1;P2;durP2;ratioP2
67889;SDS011;54685;52.082;5.426;2023-06-26T00:01:43;12.57;;;7.68;;
67889;SDS011;54685;52.082;5.426;2023-06-26T00:04:10;8.43;;;7.35;;
67889;SDS011;54685;52.082;5.426;2023-06-26T00:06:41;8.65;;;7.22;;
67889;SDS011;54685;52.082;5.426;2023-06-26T00:09:08;10.35;;;7.55;;
67889;SDS011;54685;52.082;5.426;2023-06-26T00:11:35;9.57;;;7.90;;
67889;SDS011;54685;52.082;5.426;2023-06-26T00:14:02;8.85;;;7.95;;
67889;SDS011;54685;52.082;5.426;2023-06-26T00:16:31;10.68;;;8.50;;
67889;SDS011;54685;52.082;5.426;2023-06-26T00:18:58;10.52;;;8.27;;
67889;SDS011;54685;52.082;5.426;2023-06-26T00:21:25;9.57;;;6.88;;
67889;SDS011;54685;52.082;5.426;2023-06-26T00:23:53;11.32;;;7.30;;
67889;SDS011;54685;52.082;5.426;2023-06-26T00:26:23;7.65;;;6.88;;
67889;SDS011;54685;52.082;5.426;2023-06-26T00:28:53;7.63;;;6.93;;
67889;SDS011;54685;52.082;5.426;2023-06-26T00:31:20;7.55;;;6.65;;
67889;SDS011;54685;52.082;5.426;2023-06-26T00:33:47;8.73;;;6.60;;
67889;SDS011;54685;52.082;5.426;2023-06-26T00:36:15;12.13;;;6.57;;
67889;SDS011;54685;52.082;5.426;2023-06-26T00:38:42;7.78;;;6.22;;
67889;SDS011;54685;52.082;5.426;2023-06-26T00:41:09;8.90;;;6.35;;
67889;SDS011;54685;52.082;5.426;2023-06-26T00:43:39;7.53;;;6.43;;
67889;SDS011;54685;52.082;5.426;2023-06-26T00:46:09;8.82;;;6.75;;
67889;SDS011;54685;52.082;5.426;2023-06-26T00:48:41;6.93;;;6.25;;
67889;SDS011;54685;52.082;5.426;2023-06-26T00:51:14;10.23;;;6.43;;
67889;SDS011;54685;52.082;5.426;2023-06-26T00:53:42;8.43;;;6.65;;
67889;SDS011;54685;52.082;5.426;2023-06-26T00:56:09;8.02;;;6.55;;
67889;SDS011;54685;52.082;5.426;2023-06-26T00:58:38;7.10;;;6.38;;
67889;SDS011;54685;52.082;5.426;2023-06-26T01:01:07;7.38;;;6.68;;
67889;SDS011;54685;52.082;5.426;2023-06-26T01:03:35;7.15;;;6.43;;
67889;SDS011;54685;52.082;5.426;2023-06-26T01:06:06;9.00;;;6.90;;
67889;SDS011;54685;52.082;5.426;2023-06-26T01:11:08;7.80;;;6.65;;
67889;SDS011;54685;52.082;5.426;2023-06-26T01:13:35;6.55;;;5.95;;
67889;SDS011;54685;52.082;5.426;2023-06-26T01:16:02;7.10;;;6.40;;
67889;SDS011;54685;52.082;5.426;2023-06-26T01:18:34;9.45;;;7.28;;
67889;SDS011;54685;52.082;5.426;2023-06-26T01:21:03;7.43;;;6.10;;
67889;SDS011;54685;52.082;5.426;2023-06-26T01:23:35;9.43;;;6.20;;
67889;SDS011;54685;52.082;5.426;2023-06-26T01:26:26;6.85;;;6.15;;
67889;SDS011;54685;52.082;5.426;2023-06-26T01:28:55;8.25;;;5.95;;
67889;SDS011;54685;52.082;5.426;2023-06-26T01:31:25;6.30;;;5.70;;
67889;SDS011;54685;52.082;5.426;2023-06-26T01:33:54;6.80;;;6.10;;
67889;SDS011;54685;52.082;5.426;2023-06-26T01:36:22;6.68;;;5.97;;
67889;SDS011;54685;52.082;5.426;2023-06-26T01:38:49;7.07;;;6.38;;
67889;SDS011;54685;52.082;5.426;2023-06-26T01:41:17;7.72;;;5.90;;
67889;SDS011;54685;52.082;5.426;2023-06-26T01:46:47;5.70;;;5.10;;
67889;SDS011;54685;52.082;5.426;2023-06-26T01:54:39;5.15;;;4.68;;
67889;SDS011;54685;52.082;5.426;2023-06-26T01:57:13;7.07;;;4.90;;
67889;SDS011;54685;52.082;5.426;2023-06-26T01:59:41;7.88;;;5.38;;
67889;SDS011;54685;52.082;5.426;2023-06-26T02:02:10;7.30;;;4.18;;
67889;SDS011;54685;52.082;5.426;2023-06-26T02:04:37;7.22;;;4.70;;
67889;SDS011;54685;52.082;5.426;2023-06-26T02:07:05;9.25;;;4.75;;
67889;SDS011;54685;52.082;5.426;2023-06-26T02:09:32;10.25;;;4.40;;
67889;SDS011;54685;52.082;5.426;2023-06-26T02:12:02;6.85;;;4.47;;
67889;SDS011;54685;52.082;5.426;2023-06-26T02:14:29;8.07;;;4.10;;
67889;SDS011;54685;52.082;5.426;2023-06-26T02:16:56;6.57;;;4.30;;
67889;SDS011;54685;52.082;5.426;2023-06-26T02:19:25;8.20;;;4.55;;
67889;SDS011;54685;52.082;5.426;2023-06-26T02:21:54;8.68;;;4.30;;
67889;SDS011;54685;52.082;5.426;2023-06-26T02:24:23;12.13;;;3.95;;
67889;SDS011;54685;52.082;5.426;2023-06-26T02:26:50;8.48;;;4.63;;
67889;SDS011;54685;52.082;5.426;2023-06-26T02:29:17;9.85;;;4.35;;
67889;SDS011;54685;52.082;5.426;2023-06-26T02:31:44;7.20;;;3.90;;
67889;SDS011;54685;52.082;5.426;2023-06-26T02:34:11;7.03;;;4.13;;
67889;SDS011;54685;52.082;5.426;2023-06-26T02:36:38;9.65;;;4.40;;
67889;SDS011;54685;52.082;5.426;2023-06-26T02:39:05;8.73;;;4.07;;
67889;SDS011;54685;52.082;5.426;2023-06-26T02:41:33;9.85;;;4.90;;
67889;SDS011;54685;52.082;5.426;2023-06-26T02:44:00;9.50;;;4.13;;
67889;SDS011;54685;52.082;5.426;2023-06-26T02:46:27;10.57;;;4.63;;
67889;SDS011;54685;52.082;5.426;2023-06-26T02:48:57;10.07;;;4.80;;
67889;SDS011;54685;52.082;5.426;2023-06-26T02:51:25;11.82;;;4.07;;
67889;SDS011;54685;52.082;5.426;2023-06-26T02:53:54;13.07;;;4.30;;
67889;SDS011;54685;52.082;5.426;2023-06-26T02:56:21;13.30;;;5.00;;
67889;SDS011;54685;52.082;5.426;2023-06-26T02:58:48;6.82;;;4.07;;
67889;SDS011;54685;52.082;5.426;2023-06-26T03:01:22;9.68;;;4.20;;
67889;SDS011;54685;52.082;5.426;2023-06-26T03:03:54;10.82;;;4.03;;
67889;SDS011;54685;52.082;5.426;2023-06-26T03:06:22;13.93;;;4.00;;
67889;SDS011;54685;52.082;5.426;2023-06-26T03:08:49;11.35;;;4.60;;
67889;SDS011;54685;52.082;5.426;2023-06-26T03:11:16;12.75;;;4.70;;
67889;SDS011;54685;52.082;5.426;2023-06-26T03:13:44;9.80;;;4.38;;
67889;SDS011;54685;52.082;5.426;2023-06-26T03:16:12;9.45;;;4.50;;
67889;SDS011;54685;52.082;5.426;2023-06-26T03:18:41;12.68;;;4.20;;
67889;SDS011;54685;52.082;5.426;2023-06-26T03:21:11;12.80;;;4.20;;
67889;SDS011;54685;52.082;5.426;2023-06-26T03:23:39;7.30;;;3.88;;
67889;SDS011;54685;52.082;5.426;2023-06-26T03:26:06;8.95;;;4.28;;
67889;SDS011;54685;52.082;5.426;2023-06-26T03:28:35;10.98;;;4.22;;
67889;SDS011;54685;52.082;5.426;2023-06-26T03:31:02;11.25;;;4.32;;
67889;SDS011;54685;52.082;5.426;2023-06-26T03:33:30;11.15;;;4.65;;
67889;SDS011;54685;52.082;5.426;2023-06-26T03:35:58;12.43;;;4.88;;
67889;SDS011;54685;52.082;5.426;2023-06-26T03:38:25;11.77;;;4.65;;
67889;SDS011;54685;52.082;5.426;2023-06-26T03:40:56;15.00;;;4.68;;
67889;SDS011;54685;52.082;5.426;2023-06-26T03:43:33;16.15;;;4.90;;
67889;SDS011;54685;52.082;5.426;2023-06-26T03:46:10;15.45;;;4.82;;
67889;SDS011;54685;52.082;5.426;2023-06-26T03:48:38;8.85;;;3.80;;
67889;SDS011;54685;52.082;5.426;2023-06-26T03:51:06;11.57;;;4.57;;
67889;SDS011;54685;52.082;5.426;2023-06-26T03:53:33;12.88;;;4.80;;
67889;SDS011;54685;52.082;5.426;2023-06-26T03:56:01;12.02;;;4.47;;
67889;SDS011;54685;52.082;5.426;2023-06-26T03:58:28;14.55;;;5.30;;
67889;SDS011;54685;52.082;5.426;2023-06-26T04:00:55;10.88;;;4.28;;
67889;SDS011;54685;52.082;5.426;2023-06-26T04:03:24;13.02;;;5.28;;
67889;SDS011;54685;52.082;5.426;2023-06-26T04:05:52;17.83;;;4.95;;
67889;SDS011;54685;52.082;5.426;2023-06-26T04:08:23;12.68;;;4.40;;
67889;SDS011;54685;52.082;5.426;2023-06-26T04:10:54;11.25;;;4.50;;
67889;SDS011;54685;52.082;5.426;2023-06-26T04:13:25;12.93;;;4.78;;
67889;SDS011;54685;52.082;5.426;2023-06-26T04:15:54;14.35;;;5.22;;
67889;SDS011;54685;52.082;5.426;2023-06-26T04:18:21;13.82;;;5.55;;
67889;SDS011;54685;52.082;5.426;2023-06-26T04:21:06;16.92;;;4.70;;
67889;SDS011;54685;52.082;5.426;2023-06-26T04:23:38;9.75;;;4.72;;
67889;SDS011;54685;52.082;5.426;2023-06-26T04:26:07;9.98;;;3.88;;
67889;SDS011;54685;52.082;5.426;2023-06-26T04:28:35;10.05;;;4.65;;
67889;SDS011;54685;52.082;5.426;2023-06-26T04:31:02;11.05;;;4.40;;
67889;SDS011;54685;52.082;5.426;2023-06-26T04:33:30;10.25;;;4.25;;
67889;SDS011;54685;52.082;5.426;2023-06-26T04:35:56;9.93;;;4.10;;
67889;SDS011;54685;52.082;5.426;2023-06-26T04:38:24;11.10;;;4.22;;
67889;SDS011;54685;52.082;5.426;2023-06-26T04:40:53;9.43;;;4.10;;
67889;SDS011;54685;52.082;5.426;2023-06-26T04:43:20;9.52;;;3.85;;
67889;SDS011;54685;52.082;5.426;2023-06-26T04:45:47;13.15;;;4.30;;
67889;SDS011;54685;52.082;5.426;2023-06-26T04:48:14;13.82;;;4.38;;
67889;SDS011;54685;52.082;5.426;2023-06-26T04:50:41;13.15;;;4.50;;
67889;SDS011;54685;52.082;5.426;2023-06-26T04:53:20;12.88;;;4.60;;
67889;SDS011;54685;52.082;5.426;2023-06-26T04:55:49;14.52;;;4.75;;
67889;SDS011;54685;52.082;5.426;2023-06-26T04:58:16;12.45;;;4.70;;
67889;SDS011;54685;52.082;5.426;2023-06-26T05:00:43;12.77;;;4.68;;
67889;SDS011;54685;52.082;5.426;2023-06-26T05:03:14;17.17;;;4.55;;
67889;SDS011;54685;52.082;5.426;2023-06-26T05:05:43;15.50;;;4.22;;
67889;SDS011;54685;52.082;5.426;2023-06-26T05:08:17;12.77;;;4.13;;
67889;SDS011;54685;52.082;5.426;2023-06-26T05:10:47;9.27;;;3.92;;
67889;SDS011;54685;52.082;5.426;2023-06-26T05:13:14;7.47;;;3.78;;
67889;SDS011;54685;52.082;5.426;2023-06-26T05:15:44;6.82;;;3.78;;
67889;SDS011;54685;52.082;5.426;2023-06-26T05:18:15;11.35;;;3.75;;
67889;SDS011;54685;52.082;5.426;2023-06-26T05:20:42;9.05;;;3.78;;
67889;SDS011;54685;52.082;5.426;2023-06-26T05:23:12;7.63;;;3.40;;
67889;SDS011;54685;52.082;5.426;2023-06-26T05:25:39;9.07;;;3.72;;
67889;SDS011;54685;52.082;5.426;2023-06-26T05:28:07;8.65;;;3.40;;
67889;SDS011;54685;52.082;5.426;2023-06-26T05:30:36;9.27;;;3.30;;
67889;SDS011;54685;52.082;5.426;2023-06-26T05:33:04;7.15;;;3.45;;
67889;SDS011;54685;52.082;5.426;2023-06-26T05:35:32;7.35;;;3.40;;
67889;SDS011;54685;52.082;5.426;2023-06-26T05:38:02;8.57;;;3.95;;
67889;SDS011;54685;52.082;5.426;2023-06-26T05:40:33;5.43;;;3.10;;
67889;SDS011;54685;52.082;5.426;2023-06-26T05:43:01;7.40;;;2.72;;
67889;SDS011;54685;52.082;5.426;2023-06-26T05:45:29;11.32;;;3.30;;
67889;SDS011;54685;52.082;5.426;2023-06-26T05:47:56;6.43;;;3.17;;
67889;SDS011;54685;52.082;5.426;2023-06-26T05:50:23;8.05;;;3.00;;
67889;SDS011;54685;52.082;5.426;2023-06-26T05:52:50;6.55;;;2.78;;
67889;SDS011;54685;52.082;5.426;2023-06-26T05:55:18;7.53;;;2.58;;
67889;SDS011;54685;52.082;5.426;2023-06-26T05:57:45;6.03;;;2.90;;
67889;SDS011;54685;52.082;5.426;2023-06-26T06:00:13;6.13;;;3.00;;
67889;SDS011;54685;52.082;5.426;2023-06-26T06:02:41;4.90;;;2.80;;
67889;SDS011;54685;52.082;5.426;2023-06-26T06:05:09;6.25;;;2.20;;
67889;SDS011;54685;52.082;5.426;2023-06-26T06:07:37;7.75;;;2.75;;
67889;SDS011;54685;52.082;5.426;2023-06-26T06:10:11;3.58;;;2.20;;
67889;SDS011;54685;52.082;5.426;2023-06-26T06:12:38;9.70;;;2.70;;
67889;SDS011;54685;52.082;5.426;2023-06-26T06:15:11;6.05;;;2.60;;
67889;SDS011;54685;52.082;5.426;2023-06-26T06:17:38;6.55;;;2.33;;
67889;SDS011;54685;52.082;5.426;2023-06-26T06:20:05;4.43;;;2.20;;
67889;SDS011;54685;52.082;5.426;2023-06-26T06:22:33;6.63;;;2.63;;
67889;SDS011;54685;52.082;5.426;2023-06-26T06:25:00;5.85;;;2.38;;
67889;SDS011;54685;52.082;5.426;2023-06-26T06:27:27;4.55;;;2.78;;
67889;SDS011;54685;52.082;5.426;2023-06-26T06:29:54;5.97;;;2.60;;
67889;SDS011;54685;52.082;5.426;2023-06-26T06:32:21;8.05;;;2.40;;
67889;SDS011;54685;52.082;5.426;2023-06-26T06:34:50;6.15;;;2.20;;
67889;SDS011;54685;52.082;5.426;2023-06-26T06:37:17;7.05;;;2.55;;
67889;SDS011;54685;52.082;5.426;2023-06-26T06:39:44;6.22;;;2.42;;
67889;SDS011;54685;52.082;5.426;2023-06-26T06:42:11;8.80;;;2.50;;
67889;SDS011;54685;52.082;5.426;2023-06-26T06:44:41;4.95;;;2.20;;
67889;SDS011;54685;52.082;5.426;2023-06-26T06:47:08;6.38;;;2.03;;
67889;SDS011;54685;52.082;5.426;2023-06-26T06:49:38;5.72;;;2.50;;
67889;SDS011;54685;52.082;5.426;2023-06-26T06:52:05;7.28;;;2.60;;
67889;SDS011;54685;52.082;5.426;2023-06-26T06:54:32;5.50;;;2.25;;
67889;SDS011;54685;52.082;5.426;2023-06-26T06:57:21;6.45;;;2.60;;
67889;SDS011;54685;52.082;5.426;2023-06-26T06:59:48;6.15;;;2.50;;
67889;SDS011;54685;52.082;5.426;2023-06-26T07:02:18;6.20;;;2.13;;
67889;SDS011;54685;52.082;5.426;2023-06-26T07:04:45;3.22;;;2.00;;
67889;SDS011;54685;52.082;5.426;2023-06-26T07:07:12;3.92;;;2.20;;
67889;SDS011;54685;52.082;5.426;2023-06-26T07:09:42;3.65;;;2.08;;
67889;SDS011;54685;52.082;5.426;2023-06-26T07:12:09;4.25;;;2.50;;
67889;SDS011;54685;52.082;5.426;2023-06-26T07:14:37;6.85;;;2.58;;
67889;SDS011;54685;52.082;5.426;2023-06-26T07:17:04;9.88;;;2.70;;
67889;SDS011;54685;52.082;5.426;2023-06-26T07:19:31;3.55;;;2.20;;
67889;SDS011;54685;52.082;5.426;2023-06-26T07:21:58;4.72;;;2.28;;
67889;SDS011;54685;52.082;5.426;2023-06-26T07:24:25;5.93;;;2.30;;
67889;SDS011;54685;52.082;5.426;2023-06-26T07:26:52;4.75;;;2.63;;
67889;SDS011;54685;52.082;5.426;2023-06-26T07:29:19;9.20;;;3.17;;
67889;SDS011;54685;52.082;5.426;2023-06-26T07:31:46;12.02;;;2.92;;
67889;SDS011;54685;52.082;5.426;2023-06-26T07:34:14;7.68;;;2.45;;
67889;SDS011;54685;52.082;5.426;2023-06-26T07:36:41;6.13;;;2.53;;
67889;SDS011;54685;52.082;5.426;2023-06-26T07:39:08;5.18;;;2.28;;
67889;SDS011;54685;52.082;5.426;2023-06-26T07:41:39;4.53;;;2.53;;
67889;SDS011;54685;52.082;5.426;2023-06-26T07:44:06;5.55;;;2.58;;
67889;SDS011;54685;52.082;5.426;2023-06-26T07:46:33;4.55;;;2.42;;
67889;SDS011;54685;52.082;5.426;2023-06-26T07:49:00;5.75;;;2.30;;
67889;SDS011;54685;52.082;5.426;2023-06-26T07:51:27;10.85;;;2.50;;
67889;SDS011;54685;52.082;5.426;2023-06-26T07:53:54;9.30;;;2.30;;
67889;SDS011;54685;52.082;5.426;2023-06-26T07:56:25;7.47;;;2.40;;
67889;SDS011;54685;52.082;5.426;2023-06-26T08:00:01;3.97;;;2.47;;
67889;SDS011;54685;52.082;5.426;2023-06-26T08:08:13;7.05;;;2.17;;
67889;SDS011;54685;52.082;5.426;2023-06-26T08:11:37;6.88;;;2.90;;
67889;SDS011;54685;52.082;5.426;2023-06-26T08:32:25;5.32;;;2.30;;
67889;SDS011;54685;52.082;5.426;2023-06-26T08:43:35;4.43;;;2.38;;
67889;SDS011;54685;52.082;5.426;2023-06-26T08:46:02;6.80;;;2.00;;
67889;SDS011;54685;52.082;5.426;2023-06-26T08:48:29;7.13;;;1.80;;
67889;SDS011;54685;52.082;5.426;2023-06-26T08:51:01;4.22;;;1.45;;
67889;SDS011;54685;52.082;5.426;2023-06-26T09:03:21;6.72;;;1.65;;
67889;SDS011;54685;52.082;5.426;2023-06-26T09:05:58;3.35;;;1.33;;
67889;SDS011;54685;52.082;5.426;2023-06-26T09:08:25;5.25;;;1.48;;
67889;SDS011;54685;52.082;5.426;2023-06-26T09:10:56;5.88;;;1.88;;
67889;SDS011;54685;52.082;5.426;2023-06-26T09:13:23;5.40;;;1.75;;
67889;SDS011;54685;52.082;5.426;2023-06-26T09:15:55;6.63;;;1.50;;
67889;SDS011;54685;52.082;5.426;2023-06-26T09:18:23;4.15;;;1.60;;
67889;SDS011;54685;52.082;5.426;2023-06-26T09:20:50;6.03;;;1.42;;
67889;SDS011;54685;52.082;5.426;2023-06-26T09:23:21;7.43;;;1.83;;
67889;SDS011;54685;52.082;5.426;2023-06-26T09:25:48;4.03;;;1.50;;
67889;SDS011;54685;52.082;5.426;2023-06-26T09:28:18;8.90;;;1.70;;
67889;SDS011;54685;52.082;5.426;2023-06-26T09:30:51;6.25;;;1.60;;
67889;SDS011;54685;52.082;5.426;2023-06-26T09:33:20;5.85;;;1.60;;
67889;SDS011;54685;52.082;5.426;2023-06-26T09:35:47;4.00;;;1.25;;
67889;SDS011;54685;52.082;5.426;2023-06-26T09:38:17;3.92;;;1.17;;
67889;SDS011;54685;52.082;5.426;2023-06-26T09:40:44;5.65;;;1.60;;
67889;SDS011;54685;52.082;5.426;2023-06-26T09:43:12;4.40;;;1.40;;
67889;SDS011;54685;52.082;5.426;2023-06-26T09:45:40;5.25;;;1.52;;
67889;SDS011;54685;52.082;5.426;2023-06-26T09:48:07;3.60;;;1.77;;
67889;SDS011;54685;52.082;5.426;2023-06-26T09:50:35;6.60;;;1.77;;
67889;SDS011;54685;52.082;5.426;2023-06-26T09:53:07;4.80;;;1.67;;
67889;SDS011;54685;52.082;5.426;2023-06-26T09:55:40;4.45;;;1.40;;
67889;SDS011;54685;52.082;5.426;2023-06-26T09:58:10;5.25;;;1.70;;
67889;SDS011;54685;52.082;5.426;2023-06-26T10:00:42;9.50;;;1.67;;
67889;SDS011;54685;52.082;5.426;2023-06-26T11:45:30;4.13;;;1.23;;
67889;SDS011;54685;52.082;5.426;2023-06-26T11:47:58;2.85;;;1.00;;
67889;SDS011;54685;52.082;5.426;2023-06-26T11:50:27;3.60;;;1.00;;
67889;SDS011;54685;52.082;5.426;2023-06-26T11:52:55;2.03;;;1.20;;
67889;SDS011;54685;52.082;5.426;2023-06-26T11:55:24;3.55;;;1.30;;
67889;SDS011;54685;52.082;5.426;2023-06-26T11:57:55;4.45;;;1.30;;
67889;SDS011;54685;52.082;5.426;2023-06-26T12:00:23;4.10;;;1.30;;
67889;SDS011;54685;52.082;5.426;2023-06-26T12:30:38;6.13;;;1.25;;
67889;SDS011;54685;52.082;5.426;2023-06-26T12:34:08;4.15;;;0.95;;
67889;SDS011;54685;52.082;5.426;2023-06-26T12:49:37;3.15;;;0.73;;
67889;SDS011;54685;52.082;5.426;2023-06-26T13:01:01;10.25;;;1.10;;
67889;SDS011;54685;52.082;5.426;2023-06-26T13:04:25;3.15;;;1.10;;
67889;SDS011;54685;52.082;5.426;2023-06-26T13:06:56;4.55;;;1.02;;
67889;SDS011;54685;52.082;5.426;2023-06-26T13:09:26;3.33;;;0.90;;
67889;SDS011;54685;52.082;5.426;2023-06-26T13:12:00;1.73;;;0.90;;
67889;SDS011;54685;52.082;5.426;2023-06-26T13:14:28;5.28;;;1.23;;
67889;SDS011;54685;52.082;5.426;2023-06-26T13:16:58;1.90;;;0.90;;
67889;SDS011;54685;52.082;5.426;2023-06-26T13:19:27;1.67;;;0.80;;
67889;SDS011;54685;52.082;5.426;2023-06-26T13:21:54;2.15;;;0.90;;
67889;SDS011;54685;52.082;5.426;2023-06-26T13:24:21;1.95;;;0.80;;
67889;SDS011;54685;52.082;5.426;2023-06-26T13:26:48;2.88;;;1.08;;
67889;SDS011;54685;52.082;5.426;2023-06-26T13:29:15;2.97;;;0.95;;
67889;SDS011;54685;52.082;5.426;2023-06-26T13:31:42;2.03;;;0.80;;
67889;SDS011;54685;52.082;5.426;2023-06-26T13:34:09;3.45;;;1.13;;
67889;SDS011;54685;52.082;5.426;2023-06-26T13:36:47;4.15;;;1.27;;
67889;SDS011;54685;52.082;5.426;2023-06-26T13:39:14;3.40;;;0.90;;
67889;SDS011;54685;52.082;5.426;2023-06-26T13:41:42;2.15;;;0.93;;
67889;SDS011;54685;52.082;5.426;2023-06-26T13:44:09;4.53;;;0.95;;
67889;SDS011;54685;52.082;5.426;2023-06-26T13:46:44;4.18;;;1.00;;
67889;SDS011;54685;52.082;5.426;2023-06-26T13:49:11;2.60;;;1.00;;
67889;SDS011;54685;52.082;5.426;2023-06-26T13:51:38;5.30;;;1.00;;
67889;SDS011;54685;52.082;5.426;2023-06-26T13:54:12;3.50;;;1.02;;
67889;SDS011;54685;52.082;5.426;2023-06-26T13:56:39;10.40;;;1.35;;
67889;SDS011;54685;52.082;5.426;2023-06-26T13:59:06;3.78;;;1.20;;
67889;SDS011;54685;52.082;5.426;2023-06-26T14:01:33;6.82;;;1.05;;
67889;SDS011;54685;52.082;5.426;2023-06-26T14:04:00;2.67;;;1.08;;
67889;SDS011;54685;52.082;5.426;2023-06-26T14:06:27;8.82;;;1.13;;
67889;SDS011;54685;52.082;5.426;2023-06-26T14:08:54;3.38;;;1.00;;
67889;SDS011;54685;52.082;5.426;2023-06-26T14:11:21;1.55;;;0.88;;
67889;SDS011;54685;52.082;5.426;2023-06-26T14:13:49;3.00;;;1.15;;
67889;SDS011;54685;52.082;5.426;2023-06-26T14:16:16;4.75;;;0.85;;
67889;SDS011;54685;52.082;5.426;2023-06-26T14:18:44;6.32;;;0.90;;
67889;SDS011;54685;52.082;5.426;2023-06-26T14:21:11;3.33;;;1.10;;
67889;SDS011;54685;52.082;5.426;2023-06-26T14:23:38;3.63;;;1.20;;
67889;SDS011;54685;52.082;5.426;2023-06-26T14:26:08;6.55;;;3.33;;
67889;SDS011;54685;52.082;5.426;2023-06-26T14:28:36;4.22;;;1.45;;
67889;SDS011;54685;52.082;5.426;2023-06-26T14:31:04;4.00;;;1.00;;
67889;SDS011;54685;52.082;5.426;2023-06-26T14:33:32;3.05;;;1.25;;
67889;SDS011;54685;52.082;5.426;2023-06-26T14:35:59;4.50;;;1.60;;
67889;SDS011;54685;52.082;5.426;2023-06-26T14:38:26;2.50;;;1.30;;
67889;SDS011;54685;52.082;5.426;2023-06-26T14:40:53;2.47;;;0.85;;
67889;SDS011;54685;52.082;5.426;2023-06-26T14:43:20;2.92;;;1.10;;
67889;SDS011;54685;52.082;5.426;2023-06-26T14:45:49;4.40;;;1.02;;
67889;SDS011;54685;52.082;5.426;2023-06-26T14:48:18;2.80;;;1.33;;
67889;SDS011;54685;52.082;5.426;2023-06-26T14:50:45;2.22;;;1.00;;
67889;SDS011;54685;52.082;5.426;2023-06-26T14:53:12;3.28;;;1.05;;
67889;SDS011;54685;52.082;5.426;2023-06-26T14:55:39;4.18;;;1.27;;
67889;SDS011;54685;52.082;5.426;2023-06-26T14:58:06;14.98;;;1.25;;
67889;SDS011;54685;52.082;5.426;2023-06-26T15:00:33;5.82;;;1.40;;
67889;SDS011;54685;52.082;5.426;2023-06-26T15:03:03;5.53;;;1.38;;
67889;SDS011;54685;52.082;5.426;2023-06-26T15:05:33;4.72;;;1.23;;
67889;SDS011;54685;52.082;5.426;2023-06-26T15:07:59;8.35;;;1.05;;
67889;SDS011;54685;52.082;5.426;2023-06-26T15:10:27;4.35;;;1.23;;
67889;SDS011;54685;52.082;5.426;2023-06-26T15:12:57;1.60;;;0.90;;
67889;SDS011;54685;52.082;5.426;2023-06-26T15:15:24;3.97;;;1.30;;
67889;SDS011;54685;52.082;5.426;2023-06-26T15:17:51;5.03;;;1.20;;
67889;SDS011;54685;52.082;5.426;2023-06-26T15:20:18;2.13;;;0.93;;
67889;SDS011;54685;52.082;5.426;2023-06-26T15:22:45;4.63;;;1.35;;
67889;SDS011;54685;52.082;5.426;2023-06-26T15:25:14;4.22;;;1.15;;
67889;SDS011;54685;52.082;5.426;2023-06-26T15:27:41;5.15;;;0.90;;
67889;SDS011;54685;52.082;5.426;2023-06-26T15:30:08;3.70;;;0.98;;
67889;SDS011;54685;52.082;5.426;2023-06-26T15:32:37;2.72;;;1.30;;
67889;SDS011;54685;52.082;5.426;2023-06-26T15:35:04;7.50;;;1.30;;
67889;SDS011;54685;52.082;5.426;2023-06-26T15:37:31;2.47;;;0.93;;
67889;SDS011;54685;52.082;5.426;2023-06-26T15:40:01;3.70;;;1.10;;
67889;SDS011;54685;52.082;5.426;2023-06-26T15:42:31;3.95;;;1.10;;
67889;SDS011;54685;52.082;5.426;2023-06-26T15:44:58;2.72;;;1.10;;
67889;SDS011;54685;52.082;5.426;2023-06-26T15:47:25;6.60;;;1.27;;
67889;SDS011;54685;52.082;5.426;2023-06-26T15:49:52;6.57;;;1.25;;
67889;SDS011;54685;52.082;5.426;2023-06-26T15:52:19;6.10;;;1.35;;
67889;SDS011;54685;52.082;5.426;2023-06-26T15:54:46;2.08;;;1.00;;
67889;SDS011;54685;52.082;5.426;2023-06-26T15:57:14;3.40;;;1.00;;
67889;SDS011;54685;52.082;5.426;2023-06-26T15:59:41;2.45;;;1.08;;
67889;SDS011;54685;52.082;5.426;2023-06-26T16:02:08;3.92;;;1.38;;
67889;SDS011;54685;52.082;5.426;2023-06-26T16:04:38;3.95;;;1.02;;
67889;SDS011;54685;52.082;5.426;2023-06-26T16:07:05;3.28;;;1.38;;
67889;SDS011;54685;52.082;5.426;2023-06-26T16:09:32;8.23;;;1.42;;
67889;SDS011;54685;52.082;5.426;2023-06-26T16:12:00;6.60;;;1.52;;
67889;SDS011;54685;52.082;5.426;2023-06-26T16:14:27;4.68;;;0.93;;
67889;SDS011;54685;52.082;5.426;2023-06-26T16:16:55;1.73;;;1.13;;
67889;SDS011;54685;52.082;5.426;2023-06-26T16:19:21;1.92;;;0.98;;
67889;SDS011;54685;52.082;5.426;2023-06-26T16:21:48;2.35;;;0.85;;
67889;SDS011;54685;52.082;5.426;2023-06-26T16:24:16;2.28;;;1.00;;
67889;SDS011;54685;52.082;5.426;2023-06-26T16:26:44;3.53;;;1.30;;
67889;SDS011;54685;52.082;5.426;2023-06-26T16:29:11;5.72;;;0.98;;
67889;SDS011;54685;52.082;5.426;2023-06-26T16:31:38;2.25;;;1.15;;
67889;SDS011;54685;52.082;5.426;2023-06-26T16:34:06;4.45;;;1.50;;
67889;SDS011;54685;52.082;5.426;2023-06-26T16:36:33;4.97;;;1.30;;
67889;SDS011;54685;52.082;5.426;2023-06-26T16:39:00;3.80;;;1.00;;
67889;SDS011;54685;52.082;5.426;2023-06-26T16:41:27;3.88;;;1.20;;
67889;SDS011;54685;52.082;5.426;2023-06-26T16:43:54;1.70;;;0.85;;
67889;SDS011;54685;52.082;5.426;2023-06-26T16:46:21;4.03;;;0.90;;
67889;SDS011;54685;52.082;5.426;2023-06-26T16:48:48;3.10;;;0.88;;
67889;SDS011;54685;52.082;5.426;2023-06-26T16:51:15;4.25;;;1.50;;
67889;SDS011;54685;52.082;5.426;2023-06-26T16:53:42;4.25;;;1.27;;
67889;SDS011;54685;52.082;5.426;2023-06-26T16:56:09;6.53;;;1.17;;
67889;SDS011;54685;52.082;5.426;2023-06-26T16:58:37;5.03;;;1.45;;
67889;SDS011;54685;52.082;5.426;2023-06-26T17:01:04;3.53;;;1.20;;
67889;SDS011;54685;52.082;5.426;2023-06-26T17:03:31;2.90;;;1.30;;
67889;SDS011;54685;52.082;5.426;2023-06-26T17:05:58;3.08;;;1.08;;
67889;SDS011;54685;52.082;5.426;2023-06-26T17:08:25;2.38;;;1.05;;
67889;SDS011;54685;52.082;5.426;2023-06-26T17:10:52;4.18;;;1.27;;
67889;SDS011;54685;52.082;5.426;2023-06-26T17:13:19;3.72;;;1.13;;
67889;SDS011;54685;52.082;5.426;2023-06-26T17:15:48;4.35;;;1.65;;
67889;SDS011;54685;52.082;5.426;2023-06-26T17:18:17;4.25;;;1.00;;
67889;SDS011;54685;52.082;5.426;2023-06-26T17:20:44;4.20;;;1.42;;
67889;SDS011;54685;52.082;5.426;2023-06-26T17:23:11;4.60;;;1.48;;
67889;SDS011;54685;52.082;5.426;2023-06-26T17:25:41;3.10;;;1.05;;
67889;SDS011;54685;52.082;5.426;2023-06-26T17:28:08;3.72;;;1.17;;
67889;SDS011;54685;52.082;5.426;2023-06-26T17:30:35;3.83;;;1.10;;
67889;SDS011;54685;52.082;5.426;2023-06-26T17:33:03;3.10;;;1.20;;
67889;SDS011;54685;52.082;5.426;2023-06-26T17:35:31;5.03;;;1.50;;
67889;SDS011;54685;52.082;5.426;2023-06-26T17:37:57;4.07;;;1.02;;
67889;SDS011;54685;52.082;5.426;2023-06-26T17:40:25;2.85;;;1.02;;
67889;SDS011;54685;52.082;5.426;2023-06-26T17:42:52;6.22;;;1.45;;
67889;SDS011;54685;52.082;5.426;2023-06-26T17:45:19;9.25;;;1.35;;
67889;SDS011;54685;52.082;5.426;2023-06-26T17:47:46;5.88;;;1.20;;
67889;SDS011;54685;52.082;5.426;2023-06-26T17:50:13;3.80;;;1.10;;
67889;SDS011;54685;52.082;5.426;2023-06-26T17:52:40;4.00;;;1.10;;
67889;SDS011;54685;52.082;5.426;2023-06-26T17:55:08;2.92;;;1.15;;
67889;SDS011;54685;52.082;5.426;2023-06-26T17:57:35;7.97;;;1.48;;
67889;SDS011;54685;52.082;5.426;2023-06-26T18:00:02;2.40;;;1.08;;
67889;SDS011;54685;52.082;5.426;2023-06-26T18:02:37;8.05;;;1.35;;
67889;SDS011;54685;52.082;5.426;2023-06-26T18:05:07;1.73;;;0.98;;
67889;SDS011;54685;52.082;5.426;2023-06-26T18:07:35;4.57;;;1.20;;
67889;SDS011;54685;52.082;5.426;2023-06-26T18:10:09;3.95;;;1.10;;
67889;SDS011;54685;52.082;5.426;2023-06-26T18:12:37;5.68;;;1.35;;
67889;SDS011;54685;52.082;5.426;2023-06-26T18:15:04;3.75;;;1.58;;
67889;SDS011;54685;52.082;5.426;2023-06-26T18:17:41;5.95;;;1.20;;
67889;SDS011;54685;52.082;5.426;2023-06-26T18:20:11;4.57;;;1.40;;
67889;SDS011;54685;52.082;5.426;2023-06-26T18:22:40;4.82;;;1.25;;